sensor_id;sensor_type;location;lat;lon;timestamp;temperature;humidity
6672;DHT22;3372;48.690;12.362;2023-05-23T00:02:09;18.70;31.20
6672;DHT22;3372;48.690;12.362;2023-05-23T00:04:37;18.80;31.20
6672;DHT22;3372;48.690;12.362;2023-05-23T00:07:03;18.70;31.00
6672;DHT22;3372;48.690;12.362;2023-05-23T00:09:29;18.60;30.70
6672;DHT22;3372;48.690;12.362;2023-05-23T00:11:55;18.60;32.30
6672;DHT22;3372;48.690;12.362;2023-05-23T00:14:20;18.70;31.60
6672;DHT22;3372;48.690;12.362;2023-05-23T00:16:46;18.70;32.10
6672;DHT22;3372;48.690;12.362;2023-05-23T00:19:14;18.70;30.90
6672;DHT22;3372;48.690;12.362;2023-05-23T00:21:45;18.70;31.20
6672;DHT22;3372;48.690;12.362;2023-05-23T00:24:14;18.70;31.70
6672;DHT22;3372;48.690;12.362;2023-05-23T00:26:43;18.70;31.00
6672;DHT22;3372;48.690;12.362;2023-05-23T00:29:09;18.70;31.20
6672;DHT22;3372;48.690;12.362;2023-05-23T00:31:48;18.60;31.90
6672;DHT22;3372;48.690;12.362;2023-05-23T00:34:15;18.70;31.80
6672;DHT22;3372;48.690;12.362;2023-05-23T00:36:42;18.70;31.20
6672;DHT22;3372;48.690;12.362;2023-05-23T00:39:08;18.60;32.40
6672;DHT22;3372;48.690;12.362;2023-05-23T00:41:34;18.60;31.40
6672;DHT22;3372;48.690;12.362;2023-05-23T00:44:01;18.60;31.40
6672;DHT22;3372;48.690;12.362;2023-05-23T00:46:27;18.60;31.50
6672;DHT22;3372;48.690;12.362;2023-05-23T00:48:53;18.50;31.10
6672;DHT22;3372;48.690;12.362;2023-05-23T00:51:20;18.50;31.90
6672;DHT22;3372;48.690;12.362;2023-05-23T00:53:46;18.50;31.40
6672;DHT22;3372;48.690;12.362;2023-05-23T00:56:12;18.50;31.80
6672;DHT22;3372;48.690;12.362;2023-05-23T00:58:38;18.50;31.20
6672;DHT22;3372;48.690;12.362;2023-05-23T01:01:04;18.50;31.80
6672;DHT22;3372;48.690;12.362;2023-05-23T01:03:31;18.50;32.00
6672;DHT22;3372;48.690;12.362;2023-05-23T01:05:56;18.60;31.70
6672;DHT22;3372;48.690;12.362;2023-05-23T01:08:22;18.50;31.90
6672;DHT22;3372;48.690;12.362;2023-05-23T01:10:48;18.50;31.80
6672;DHT22;3372;48.690;12.362;2023-05-23T01:13:33;18.60;31.40
6672;DHT22;3372;48.690;12.362;2023-05-23T01:16:12;18.60;33.10
6672;DHT22;3372;48.690;12.362;2023-05-23T01:18:42;18.50;32.20
6672;DHT22;3372;48.690;12.362;2023-05-23T01:21:17;18.50;31.90
6672;DHT22;3372;48.690;12.362;2023-05-23T01:24:06;18.50;33.40
6672;DHT22;3372;48.690;12.362;2023-05-23T01:26:40;18.50;34.40
6672;DHT22;3372;48.690;12.362;2023-05-23T01:29:31;18.50;32.40
6672;DHT22;3372;48.690;12.362;2023-05-23T01:31:59;18.50;35.10
6672;DHT22;3372;48.690;12.362;2023-05-23T01:34:25;18.30;33.30
6672;DHT22;3372;48.690;12.362;2023-05-23T01:36:53;18.40;34.40
6672;DHT22;3372;48.690;12.362;2023-05-23T01:39:20;18.30;34.00
6672;DHT22;3372;48.690;12.362;2023-05-23T01:41:46;18.30;33.70
6672;DHT22;3372;48.690;12.362;2023-05-23T01:44:12;18.40;33.20
6672;DHT22;3372;48.690;12.362;2023-05-23T01:46:38;18.40;33.40
6672;DHT22;3372;48.690;12.362;2023-05-23T01:49:07;18.30;33.30
6672;DHT22;3372;48.690;12.362;2023-05-23T01:51:32;18.40;34.70
6672;DHT22;3372;48.690;12.362;2023-05-23T01:53:59;18.40;34.40
6672;DHT22;3372;48.690;12.362;2023-05-23T01:56:29;18.30;34.60
6672;DHT22;3372;48.690;12.362;2023-05-23T01:58:55;18.30;34.30
6672;DHT22;3372;48.690;12.362;2023-05-23T02:01:22;18.40;33.90
6672;DHT22;3372;48.690;12.362;2023-05-23T02:03:49;18.40;34.40
6672;DHT22;3372;48.690;12.362;2023-05-23T02:06:14;18.40;34.40
6672;DHT22;3372;48.690;12.362;2023-05-23T02:08:40;18.40;34.40
6672;DHT22;3372;48.690;12.362;2023-05-23T02:11:05;18.40;34.60
6672;DHT22;3372;48.690;12.362;2023-05-23T02:13:33;18.40;34.80
6672;DHT22;3372;48.690;12.362;2023-05-23T02:15:59;18.40;34.80
6672;DHT22;3372;48.690;12.362;2023-05-23T02:18:24;18.40;34.40
6672;DHT22;3372;48.690;12.362;2023-05-23T02:20:50;18.50;34.70
6672;DHT22;3372;48.690;12.362;2023-05-23T02:23:16;18.50;35.00
6672;DHT22;3372;48.690;12.362;2023-05-23T02:25:41;18.50;34.40
6672;DHT22;3372;48.690;12.362;2023-05-23T02:28:07;18.50;35.30
6672;DHT22;3372;48.690;12.362;2023-05-23T02:30:33;18.50;35.70
6672;DHT22;3372;48.690;12.362;2023-05-23T02:32:58;18.50;35.80
6672;DHT22;3372;48.690;12.362;2023-05-23T02:35:28;18.50;38.50
6672;DHT22;3372;48.690;12.362;2023-05-23T02:37:54;18.50;37.60
6672;DHT22;3372;48.690;12.362;2023-05-23T02:40:19;18.60;37.30
6672;DHT22;3372;48.690;12.362;2023-05-23T02:42:45;18.60;37.00
6672;DHT22;3372;48.690;12.362;2023-05-23T02:45:10;18.60;36.80
6672;DHT22;3372;48.690;12.362;2023-05-23T02:47:36;18.60;36.70
6672;DHT22;3372;48.690;12.362;2023-05-23T02:50:02;18.70;36.50
6672;DHT22;3372;48.690;12.362;2023-05-23T02:52:28;18.70;36.30
6672;DHT22;3372;48.690;12.362;2023-05-23T02:54:53;18.70;36.50
6672;DHT22;3372;48.690;12.362;2023-05-23T02:57:19;18.70;36.60
6672;DHT22;3372;48.690;12.362;2023-05-23T02:59:44;18.70;36.80
6672;DHT22;3372;48.690;12.362;2023-05-23T03:02:10;18.70;36.50
6672;DHT22;3372;48.690;12.362;2023-05-23T03:04:36;18.70;37.60
6672;DHT22;3372;48.690;12.362;2023-05-23T03:07:02;18.70;38.10
6672;DHT22;3372;48.690;12.362;2023-05-23T03:09:28;18.70;36.70
6672;DHT22;3372;48.690;12.362;2023-05-23T03:11:53;18.70;37.00
6672;DHT22;3372;48.690;12.362;2023-05-23T03:14:19;18.70;37.50
6672;DHT22;3372;48.690;12.362;2023-05-23T03:16:45;18.70;37.60
6672;DHT22;3372;48.690;12.362;2023-05-23T03:19:10;18.70;37.90
6672;DHT22;3372;48.690;12.362;2023-05-23T03:21:36;18.70;37.20
6672;DHT22;3372;48.690;12.362;2023-05-23T03:24:01;18.70;37.90
6672;DHT22;3372;48.690;12.362;2023-05-23T03:26:29;18.70;37.80
6672;DHT22;3372;48.690;12.362;2023-05-23T03:28:55;18.80;37.20
6672;DHT22;3372;48.690;12.362;2023-05-23T03:31:20;18.80;37.50
6672;DHT22;3372;48.690;12.362;2023-05-23T03:33:47;18.80;37.20
6672;DHT22;3372;48.690;12.362;2023-05-23T03:36:13;18.80;37.30
6672;DHT22;3372;48.690;12.362;2023-05-23T03:38:39;18.80;37.60
6672;DHT22;3372;48.690;12.362;2023-05-23T03:41:04;18.80;38.20
6672;DHT22;3372;48.690;12.362;2023-05-23T03:43:30;18.80;39.20
6672;DHT22;3372;48.690;12.362;2023-05-23T03:45:56;18.80;38.70
6672;DHT22;3372;48.690;12.362;2023-05-23T03:48:21;18.80;38.40
6672;DHT22;3372;48.690;12.362;2023-05-23T03:50:47;18.80;38.60
6672;DHT22;3372;48.690;12.362;2023-05-23T03:53:12;18.90;38.50
6672;DHT22;3372;48.690;12.362;2023-05-23T03:55:38;18.90;37.90
6672;DHT22;3372;48.690;12.362;2023-05-23T03:58:04;18.90;38.70
6672;DHT22;3372;48.690;12.362;2023-05-23T04:00:29;18.90;39.10
6672;DHT22;3372;48.690;12.362;2023-05-23T04:02:55;18.90;39.60
6672;DHT22;3372;48.690;12.362;2023-05-23T04:05:21;18.80;39.30
6672;DHT22;3372;48.690;12.362;2023-05-23T04:07:47;18.90;38.70
6672;DHT22;3372;48.690;12.362;2023-05-23T04:10:13;19.00;38.40
6672;DHT22;3372;48.690;12.362;2023-05-23T04:12:39;18.90;39.10
6672;DHT22;3372;48.690;12.362;2023-05-23T04:15:06;18.90;39.70
6672;DHT22;3372;48.690;12.362;2023-05-23T04:17:32;19.00;39.10
6672;DHT22;3372;48.690;12.362;2023-05-23T04:19:58;19.00;39.50
6672;DHT22;3372;48.690;12.362;2023-05-23T04:22:24;19.00;39.60
6672;DHT22;3372;48.690;12.362;2023-05-23T04:24:49;19.00;39.50
6672;DHT22;3372;48.690;12.362;2023-05-23T04:27:15;19.00;39.00
6672;DHT22;3372;48.690;12.362;2023-05-23T04:29:41;19.00;39.80
6672;DHT22;3372;48.690;12.362;2023-05-23T04:32:06;19.10;39.30
6672;DHT22;3372;48.690;12.362;2023-05-23T04:34:32;19.10;38.60
6672;DHT22;3372;48.690;12.362;2023-05-23T04:36:59;19.10;38.60
6672;DHT22;3372;48.690;12.362;2023-05-23T04:39:28;19.10;39.70
6672;DHT22;3372;48.690;12.362;2023-05-23T04:41:54;19.10;38.90
6672;DHT22;3372;48.690;12.362;2023-05-23T04:44:21;19.10;39.60
6672;DHT22;3372;48.690;12.362;2023-05-23T04:46:47;19.20;38.70
6672;DHT22;3372;48.690;12.362;2023-05-23T04:49:15;19.20;39.00
6672;DHT22;3372;48.690;12.362;2023-05-23T04:51:42;19.20;38.60
6672;DHT22;3372;48.690;12.362;2023-05-23T04:54:08;19.20;38.60
6672;DHT22;3372;48.690;12.362;2023-05-23T04:56:33;19.30;38.40
6672;DHT22;3372;48.690;12.362;2023-05-23T04:58:59;19.20;38.90
6672;DHT22;3372;48.690;12.362;2023-05-23T05:01:24;19.30;38.20
6672;DHT22;3372;48.690;12.362;2023-05-23T05:03:50;19.30;38.10
6672;DHT22;3372;48.690;12.362;2023-05-23T05:06:16;19.40;38.20
6672;DHT22;3372;48.690;12.362;2023-05-23T05:08:42;19.40;38.40
6672;DHT22;3372;48.690;12.362;2023-05-23T05:11:08;19.40;39.30
6672;DHT22;3372;48.690;12.362;2023-05-23T05:13:35;19.50;38.90
6672;DHT22;3372;48.690;12.362;2023-05-23T05:16:01;19.70;38.10
6672;DHT22;3372;48.690;12.362;2023-05-23T05:18:27;20.40;37.10
6672;DHT22;3372;48.690;12.362;2023-05-23T05:20:53;20.70;35.70
6672;DHT22;3372;48.690;12.362;2023-05-23T05:23:23;20.70;34.90
6672;DHT22;3372;48.690;12.362;2023-05-23T05:25:49;21.00;35.30
6672;DHT22;3372;48.690;12.362;2023-05-23T05:28:14;21.40;34.60
6672;DHT22;3372;48.690;12.362;2023-05-23T05:30:40;21.80;32.60
6672;DHT22;3372;48.690;12.362;2023-05-23T05:33:06;22.00;31.60
6672;DHT22;3372;48.690;12.362;2023-05-23T05:35:35;21.70;31.10
6672;DHT22;3372;48.690;12.362;2023-05-23T05:38:02;21.70;31.20
6672;DHT22;3372;48.690;12.362;2023-05-23T05:40:32;22.10;31.80
6672;DHT22;3372;48.690;12.362;2023-05-23T05:42:57;22.50;30.80
6672;DHT22;3372;48.690;12.362;2023-05-23T05:45:23;22.60;29.50
6672;DHT22;3372;48.690;12.362;2023-05-23T05:47:48;22.90;29.40
6672;DHT22;3372;48.690;12.362;2023-05-23T05:50:14;22.60;29.90
6672;DHT22;3372;48.690;12.362;2023-05-23T05:52:41;22.70;29.90
6672;DHT22;3372;48.690;12.362;2023-05-23T05:55:09;22.80;28.20
6672;DHT22;3372;48.690;12.362;2023-05-23T05:57:39;22.90;29.40
6672;DHT22;3372;48.690;12.362;2023-05-23T06:00:10;22.70;28.90
6672;DHT22;3372;48.690;12.362;2023-05-23T06:02:44;22.80;29.50
6672;DHT22;3372;48.690;12.362;2023-05-23T06:05:13;23.40;29.00
6672;DHT22;3372;48.690;12.362;2023-05-23T06:07:41;23.70;28.00
6672;DHT22;3372;48.690;12.362;2023-05-23T06:10:07;24.00;28.20
6672;DHT22;3372;48.690;12.362;2023-05-23T06:12:36;24.10;26.40
6672;DHT22;3372;48.690;12.362;2023-05-23T06:15:01;24.10;26.80
6672;DHT22;3372;48.690;12.362;2023-05-23T06:17:27;23.40;25.50
6672;DHT22;3372;48.690;12.362;2023-05-23T06:19:53;23.80;27.50
6672;DHT22;3372;48.690;12.362;2023-05-23T06:22:18;24.10;26.70
6672;DHT22;3372;48.690;12.362;2023-05-23T06:24:44;23.80;24.90
6672;DHT22;3372;48.690;12.362;2023-05-23T06:27:11;24.00;27.00
6672;DHT22;3372;48.690;12.362;2023-05-23T06:29:37;23.60;25.20
6672;DHT22;3372;48.690;12.362;2023-05-23T06:32:02;23.80;26.50
6672;DHT22;3372;48.690;12.362;2023-05-23T06:34:28;23.80;25.20
6672;DHT22;3372;48.690;12.362;2023-05-23T06:36:54;23.90;26.10
6672;DHT22;3372;48.690;12.362;2023-05-23T06:39:20;24.10;26.40
6672;DHT22;3372;48.690;12.362;2023-05-23T06:41:46;24.40;25.80
6672;DHT22;3372;48.690;12.362;2023-05-23T06:44:11;23.70;24.40
6672;DHT22;3372;48.690;12.362;2023-05-23T06:46:37;24.10;25.60
6672;DHT22;3372;48.690;12.362;2023-05-23T06:49:03;24.40;26.20
6672;DHT22;3372;48.690;12.362;2023-05-23T06:51:28;24.30;24.20
6672;DHT22;3372;48.690;12.362;2023-05-23T06:53:54;24.40;25.40
6672;DHT22;3372;48.690;12.362;2023-05-23T06:56:22;24.40;24.90
6672;DHT22;3372;48.690;12.362;2023-05-23T06:58:48;24.20;25.30
6672;DHT22;3372;48.690;12.362;2023-05-23T07:01:13;24.20;25.60
6672;DHT22;3372;48.690;12.362;2023-05-23T07:03:39;24.60;25.90
6672;DHT22;3372;48.690;12.362;2023-05-23T07:06:07;24.70;25.80
6672;DHT22;3372;48.690;12.362;2023-05-23T07:08:33;24.40;24.30
6672;DHT22;3372;48.690;12.362;2023-05-23T07:10:59;24.00;25.40
6672;DHT22;3372;48.690;12.362;2023-05-23T07:13:24;22.90;25.80
6672;DHT22;3372;48.690;12.362;2023-05-23T07:15:50;23.10;27.80
6672;DHT22;3372;48.690;12.362;2023-05-23T07:18:15;23.00;28.10
6672;DHT22;3372;48.690;12.362;2023-05-23T07:20:41;23.30;28.50
6672;DHT22;3372;48.690;12.362;2023-05-23T07:23:06;23.50;26.70
6672;DHT22;3372;48.690;12.362;2023-05-23T07:25:32;23.70;27.10
6672;DHT22;3372;48.690;12.362;2023-05-23T07:27:58;23.50;27.30
6672;DHT22;3372;48.690;12.362;2023-05-23T07:30:23;23.60;26.30
6672;DHT22;3372;48.690;12.362;2023-05-23T07:32:49;23.90;26.60
6672;DHT22;3372;48.690;12.362;2023-05-23T07:35:16;24.10;25.80
6672;DHT22;3372;48.690;12.362;2023-05-23T07:37:42;24.10;25.00
6672;DHT22;3372;48.690;12.362;2023-05-23T07:40:08;24.00;25.40
6672;DHT22;3372;48.690;12.362;2023-05-23T07:42:35;24.40;26.60
6672;DHT22;3372;48.690;12.362;2023-05-23T07:45:01;24.60;25.40
6672;DHT22;3372;48.690;12.362;2023-05-23T07:47:26;24.40;25.20
6672;DHT22;3372;48.690;12.362;2023-05-23T07:49:52;24.70;24.30
6672;DHT22;3372;48.690;12.362;2023-05-23T07:52:18;24.50;23.70
6672;DHT22;3372;48.690;12.362;2023-05-23T07:54:44;24.80;23.60
6672;DHT22;3372;48.690;12.362;2023-05-23T07:57:10;24.50;25.10
6672;DHT22;3372;48.690;12.362;2023-05-23T07:59:35;24.40;26.30
6672;DHT22;3372;48.690;12.362;2023-05-23T08:02:01;24.30;24.40
6672;DHT22;3372;48.690;12.362;2023-05-23T08:04:28;24.60;25.50
6672;DHT22;3372;48.690;12.362;2023-05-23T08:06:54;25.20;25.80
6672;DHT22;3372;48.690;12.362;2023-05-23T08:09:22;25.50;25.10
6672;DHT22;3372;48.690;12.362;2023-05-23T08:11:48;25.70;24.50
6672;DHT22;3372;48.690;12.362;2023-05-23T08:14:14;25.70;24.50
6672;DHT22;3372;48.690;12.362;2023-05-23T08:16:39;24.90;23.60
6672;DHT22;3372;48.690;12.362;2023-05-23T08:19:05;25.20;25.40
6672;DHT22;3372;48.690;12.362;2023-05-23T08:21:31;25.50;25.10
6672;DHT22;3372;48.690;12.362;2023-05-23T08:23:57;25.70;24.50
6672;DHT22;3372;48.690;12.362;2023-05-23T08:26:22;25.50;23.20
6672;DHT22;3372;48.690;12.362;2023-05-23T08:28:48;25.40;23.80
6672;DHT22;3372;48.690;12.362;2023-05-23T08:31:14;25.10;22.50
6672;DHT22;3372;48.690;12.362;2023-05-23T08:33:39;25.00;24.10
6672;DHT22;3372;48.690;12.362;2023-05-23T08:36:05;25.00;24.90
6672;DHT22;3372;48.690;12.362;2023-05-23T08:38:31;24.70;23.90
6672;DHT22;3372;48.690;12.362;2023-05-23T08:41:00;24.80;23.20
6672;DHT22;3372;48.690;12.362;2023-05-23T08:43:25;25.10;24.10
6672;DHT22;3372;48.690;12.362;2023-05-23T08:45:51;25.50;23.50
6672;DHT22;3372;48.690;12.362;2023-05-23T08:48:19;25.50;22.50
6672;DHT22;3372;48.690;12.362;2023-05-23T08:50:46;25.70;22.90
6672;DHT22;3372;48.690;12.362;2023-05-23T08:53:15;25.10;21.80
6672;DHT22;3372;48.690;12.362;2023-05-23T08:55:46;25.10;22.90
6672;DHT22;3372;48.690;12.362;2023-05-23T08:58:13;24.80;22.80
6672;DHT22;3372;48.690;12.362;2023-05-23T09:00:40;24.50;22.80
6672;DHT22;3372;48.690;12.362;2023-05-23T09:03:08;25.00;23.70
6672;DHT22;3372;48.690;12.362;2023-05-23T09:05:33;25.00;23.40
6672;DHT22;3372;48.690;12.362;2023-05-23T09:07:59;25.20;24.90
6672;DHT22;3372;48.690;12.362;2023-05-23T09:10:24;25.40;23.30
6672;DHT22;3372;48.690;12.362;2023-05-23T09:12:54;25.40;22.30
6672;DHT22;3372;48.690;12.362;2023-05-23T09:15:20;25.50;21.90
6672;DHT22;3372;48.690;12.362;2023-05-23T09:17:46;25.30;20.50
6672;DHT22;3372;48.690;12.362;2023-05-23T09:20:14;25.20;21.80
6672;DHT22;3372;48.690;12.362;2023-05-23T09:22:40;25.30;20.80
6672;DHT22;3372;48.690;12.362;2023-05-23T09:25:07;25.30;21.70
6672;DHT22;3372;48.690;12.362;2023-05-23T09:27:33;25.40;22.10
6672;DHT22;3372;48.690;12.362;2023-05-23T09:30:05;25.50;21.40
6672;DHT22;3372;48.690;12.362;2023-05-23T09:32:31;25.20;20.30
6672;DHT22;3372;48.690;12.362;2023-05-23T09:34:59;24.70;20.90
6672;DHT22;3372;48.690;12.362;2023-05-23T09:37:33;24.80;21.70
6672;DHT22;3372;48.690;12.362;2023-05-23T09:40:00;24.70;21.70
6672;DHT22;3372;48.690;12.362;2023-05-23T09:42:31;24.10;21.60
6672;DHT22;3372;48.690;12.362;2023-05-23T09:44:58;24.30;23.60
6672;DHT22;3372;48.690;12.362;2023-05-23T09:47:24;24.60;22.90
6672;DHT22;3372;48.690;12.362;2023-05-23T09:49:50;24.90;23.80
6672;DHT22;3372;48.690;12.362;2023-05-23T09:52:16;25.00;22.50
6672;DHT22;3372;48.690;12.362;2023-05-23T09:54:45;24.90;21.90
6672;DHT22;3372;48.690;12.362;2023-05-23T09:57:12;24.70;22.00
6672;DHT22;3372;48.690;12.362;2023-05-23T09:59:40;24.50;22.10
6672;DHT22;3372;48.690;12.362;2023-05-23T10:02:10;24.40;23.40
6672;DHT22;3372;48.690;12.362;2023-05-23T10:04:38;24.60;23.70
6672;DHT22;3372;48.690;12.362;2023-05-23T10:07:18;24.00;23.60
6672;DHT22;3372;48.690;12.362;2023-05-23T10:09:49;24.40;23.80
6672;DHT22;3372;48.690;12.362;2023-05-23T10:12:38;24.30;24.10
6672;DHT22;3372;48.690;12.362;2023-05-23T10:15:08;24.50;24.20
6672;DHT22;3372;48.690;12.362;2023-05-23T10:17:56;24.90;24.10
6672;DHT22;3372;48.690;12.362;2023-05-23T10:20:28;25.10;23.60
6672;DHT22;3372;48.690;12.362;2023-05-23T10:22:58;25.30;22.60
6672;DHT22;3372;48.690;12.362;2023-05-23T10:25:24;25.30;20.30
6672;DHT22;3372;48.690;12.362;2023-05-23T10:27:56;25.50;21.40
6672;DHT22;3372;48.690;12.362;2023-05-23T10:30:25;25.20;20.80
6672;DHT22;3372;48.690;12.362;2023-05-23T10:32:51;25.20;22.00
6672;DHT22;3372;48.690;12.362;2023-05-23T10:41:12;25.00;19.30
6672;DHT22;3372;48.690;12.362;2023-05-23T10:43:50;24.50;20.80
6672;DHT22;3372;48.690;12.362;2023-05-23T10:46:19;24.20;21.40
6672;DHT22;3372;48.690;12.362;2023-05-23T10:48:53;24.30;22.40
6672;DHT22;3372;48.690;12.362;2023-05-23T10:51:21;24.70;21.20
6672;DHT22;3372;48.690;12.362;2023-05-23T10:53:53;24.70;19.20
6672;DHT22;3372;48.690;12.362;2023-05-23T10:56:22;24.50;20.90
6672;DHT22;3372;48.690;12.362;2023-05-23T10:58:52;24.80;20.80
6672;DHT22;3372;48.690;12.362;2023-05-23T11:01:19;24.90;20.70
6672;DHT22;3372;48.690;12.362;2023-05-23T11:06:28;24.90;20.60
6672;DHT22;3372;48.690;12.362;2023-05-23T11:09:02;25.20;20.60
6672;DHT22;3372;48.690;12.362;2023-05-23T11:14:13;24.90;18.30
6672;DHT22;3372;48.690;12.362;2023-05-23T11:16:40;24.70;18.60
6672;DHT22;3372;48.690;12.362;2023-05-23T11:21:45;24.50;17.90
6672;DHT22;3372;48.690;12.362;2023-05-23T11:24:11;24.50;18.10
6672;DHT22;3372;48.690;12.362;2023-05-23T11:26:37;24.60;17.70
6672;DHT22;3372;48.690;12.362;2023-05-23T11:29:07;24.40;18.80
6672;DHT22;3372;48.690;12.362;2023-05-23T11:31:39;24.40;18.60
6672;DHT22;3372;48.690;12.362;2023-05-23T11:34:06;24.30;18.50
6672;DHT22;3372;48.690;12.362;2023-05-23T11:36:31;24.40;19.30
6672;DHT22;3372;48.690;12.362;2023-05-23T11:39:01;24.00;19.60
6672;DHT22;3372;48.690;12.362;2023-05-23T11:41:27;24.10;20.40
6672;DHT22;3372;48.690;12.362;2023-05-23T11:43:53;23.70;19.90
6672;DHT22;3372;48.690;12.362;2023-05-23T11:46:19;23.70;19.80
6672;DHT22;3372;48.690;12.362;2023-05-23T11:48:45;23.80;19.20
6672;DHT22;3372;48.690;12.362;2023-05-23T11:51:11;24.10;20.30
6672;DHT22;3372;48.690;12.362;2023-05-23T11:53:38;24.20;19.30
6672;DHT22;3372;48.690;12.362;2023-05-23T11:56:04;24.10;17.50
6672;DHT22;3372;48.690;12.362;2023-05-23T11:58:36;24.10;18.60
6672;DHT22;3372;48.690;12.362;2023-05-23T12:01:07;24.00;19.10
6672;DHT22;3372;48.690;12.362;2023-05-23T12:03:33;24.10;19.50
6672;DHT22;3372;48.690;12.362;2023-05-23T12:05:59;23.80;19.90
6672;DHT22;3372;48.690;12.362;2023-05-23T12:08:26;24.00;21.10
6672;DHT22;3372;48.690;12.362;2023-05-23T12:10:55;24.10;20.30
6672;DHT22;3372;48.690;12.362;2023-05-23T12:13:29;24.20;20.00
6672;DHT22;3372;48.690;12.362;2023-05-23T12:16:01;24.40;19.70
6672;DHT22;3372;48.690;12.362;2023-05-23T12:18:29;24.50;18.10
6672;DHT22;3372;48.690;12.362;2023-05-23T12:21:01;24.00;17.50
6672;DHT22;3372;48.690;12.362;2023-05-23T12:23:28;24.10;18.30
6672;DHT22;3372;48.690;12.362;2023-05-23T12:25:55;24.40;17.70
6672;DHT22;3372;48.690;12.362;2023-05-23T12:28:33;24.50;16.90
6672;DHT22;3372;48.690;12.362;2023-05-23T12:31:08;24.50;16.80
6672;DHT22;3372;48.690;12.362;2023-05-23T12:33:40;24.50;16.50
6672;DHT22;3372;48.690;12.362;2023-05-23T12:36:28;24.40;15.20
6672;DHT22;3372;48.690;12.362;2023-05-23T12:39:01;24.40;17.20
6672;DHT22;3372;48.690;12.362;2023-05-23T12:41:28;24.30;15.70
6672;DHT22;3372;48.690;12.362;2023-05-23T12:43:55;24.50;16.10
6672;DHT22;3372;48.690;12.362;2023-05-23T12:46:22;24.50;15.50
6672;DHT22;3372;48.690;12.362;2023-05-23T12:48:48;24.40;15.00
6672;DHT22;3372;48.690;12.362;2023-05-23T12:51:14;24.10;15.10
6672;DHT22;3372;48.690;12.362;2023-05-23T12:53:40;24.20;16.10
6672;DHT22;3372;48.690;12.362;2023-05-23T12:56:06;24.40;16.60
6672;DHT22;3372;48.690;12.362;2023-05-23T12:58:35;24.20;15.70
6672;DHT22;3372;48.690;12.362;2023-05-23T13:01:01;24.00;16.40
6672;DHT22;3372;48.690;12.362;2023-05-23T13:03:28;24.10;16.10
6672;DHT22;3372;48.690;12.362;2023-05-23T13:05:57;24.00;17.00
6672;DHT22;3372;48.690;12.362;2023-05-23T13:08:24;24.30;16.50
6672;DHT22;3372;48.690;12.362;2023-05-23T13:10:50;24.00;15.80
6672;DHT22;3372;48.690;12.362;2023-05-23T13:13:15;24.10;16.10
6672;DHT22;3372;48.690;12.362;2023-05-23T13:15:41;24.00;15.40
6672;DHT22;3372;48.690;12.362;2023-05-23T13:18:07;24.10;16.90
6672;DHT22;3372;48.690;12.362;2023-05-23T13:20:34;24.10;15.00
6672;DHT22;3372;48.690;12.362;2023-05-23T13:23:00;23.70;15.40
6672;DHT22;3372;48.690;12.362;2023-05-23T13:25:27;23.90;16.70
6672;DHT22;3372;48.690;12.362;2023-05-23T13:27:53;23.80;15.70
6672;DHT22;3372;48.690;12.362;2023-05-23T13:30:20;24.10;15.90
6672;DHT22;3372;48.690;12.362;2023-05-23T13:32:45;23.90;15.90
6672;DHT22;3372;48.690;12.362;2023-05-23T13:35:11;24.10;15.90
6672;DHT22;3372;48.690;12.362;2023-05-23T13:37:37;24.20;16.10
6672;DHT22;3372;48.690;12.362;2023-05-23T13:40:03;24.30;15.70
6672;DHT22;3372;48.690;12.362;2023-05-23T13:42:30;24.40;15.20
6672;DHT22;3372;48.690;12.362;2023-05-23T13:44:55;24.20;15.90
6672;DHT22;3372;48.690;12.362;2023-05-23T13:47:21;24.20;15.20
6672;DHT22;3372;48.690;12.362;2023-05-23T13:49:47;24.00;15.60
6672;DHT22;3372;48.690;12.362;2023-05-23T13:52:13;23.90;16.10
6672;DHT22;3372;48.690;12.362;2023-05-23T13:54:39;23.90;15.70
6672;DHT22;3372;48.690;12.362;2023-05-23T13:57:06;24.10;15.60
6672;DHT22;3372;48.690;12.362;2023-05-23T13:59:32;24.30;15.40
6672;DHT22;3372;48.690;12.362;2023-05-23T14:01:57;24.40;15.20
6672;DHT22;3372;48.690;12.362;2023-05-23T14:04:23;24.40;14.20
6672;DHT22;3372;48.690;12.362;2023-05-23T14:06:49;24.40;14.70
6672;DHT22;3372;48.690;12.362;2023-05-23T14:09:15;24.50;15.00
6672;DHT22;3372;48.690;12.362;2023-05-23T14:11:42;24.40;15.00
6672;DHT22;3372;48.690;12.362;2023-05-23T14:14:08;24.50;14.90
6672;DHT22;3372;48.690;12.362;2023-05-23T14:16:33;24.70;15.50
6672;DHT22;3372;48.690;12.362;2023-05-23T14:18:59;24.70;15.20
6672;DHT22;3372;48.690;12.362;2023-05-23T14:21:25;24.40;13.70
6672;DHT22;3372;48.690;12.362;2023-05-23T14:23:53;24.50;14.50
6672;DHT22;3372;48.690;12.362;2023-05-23T14:26:19;24.60;14.60
6672;DHT22;3372;48.690;12.362;2023-05-23T14:28:46;24.50;14.30
6672;DHT22;3372;48.690;12.362;2023-05-23T14:31:12;24.20;13.40
6672;DHT22;3372;48.690;12.362;2023-05-23T14:33:38;24.20;13.80
6672;DHT22;3372;48.690;12.362;2023-05-23T14:36:03;24.20;14.50
6672;DHT22;3372;48.690;12.362;2023-05-23T14:38:29;24.10;14.80
6672;DHT22;3372;48.690;12.362;2023-05-23T14:40:55;24.00;14.70
6672;DHT22;3372;48.690;12.362;2023-05-23T14:43:20;23.90;15.20
6672;DHT22;3372;48.690;12.362;2023-05-23T14:45:46;24.00;14.90
6672;DHT22;3372;48.690;12.362;2023-05-23T14:48:12;24.20;14.50
6672;DHT22;3372;48.690;12.362;2023-05-23T14:50:38;23.70;13.40
6672;DHT22;3372;48.690;12.362;2023-05-23T14:53:03;23.70;14.30
6672;DHT22;3372;48.690;12.362;2023-05-23T14:55:29;23.50;13.80
6672;DHT22;3372;48.690;12.362;2023-05-23T14:57:55;23.50;14.00
6672;DHT22;3372;48.690;12.362;2023-05-23T15:00:22;23.80;14.70
6672;DHT22;3372;48.690;12.362;2023-05-23T15:02:48;23.70;13.70
6672;DHT22;3372;48.690;12.362;2023-05-23T15:05:13;23.50;13.30
6672;DHT22;3372;48.690;12.362;2023-05-23T15:07:40;23.70;13.20
6672;DHT22;3372;48.690;12.362;2023-05-23T15:10:06;23.90;13.50
6672;DHT22;3372;48.690;12.362;2023-05-23T15:12:32;23.70;13.40
6672;DHT22;3372;48.690;12.362;2023-05-23T15:14:58;23.70;12.10
6672;DHT22;3372;48.690;12.362;2023-05-23T15:17:29;23.60;12.20
6672;DHT22;3372;48.690;12.362;2023-05-23T15:19:55;23.70;12.00
6672;DHT22;3372;48.690;12.362;2023-05-23T15:22:20;23.60;12.20
6672;DHT22;3372;48.690;12.362;2023-05-23T15:24:46;23.20;12.10
6672;DHT22;3372;48.690;12.362;2023-05-23T15:27:12;23.10;12.10
6672;DHT22;3372;48.690;12.362;2023-05-23T15:29:37;23.00;12.90
6672;DHT22;3372;48.690;12.362;2023-05-23T15:32:06;23.20;12.80
6672;DHT22;3372;48.690;12.362;2023-05-23T15:34:31;23.30;12.90
6672;DHT22;3372;48.690;12.362;2023-05-23T15:36:57;23.50;12.60
6672;DHT22;3372;48.690;12.362;2023-05-23T15:39:25;23.40;12.20
6672;DHT22;3372;48.690;12.362;2023-05-23T15:41:51;23.40;11.10
6672;DHT22;3372;48.690;12.362;2023-05-23T15:44:17;23.00;11.90
6672;DHT22;3372;48.690;12.362;2023-05-23T15:46:48;23.00;12.50
6672;DHT22;3372;48.690;12.362;2023-05-23T15:49:14;23.10;12.20
6672;DHT22;3372;48.690;12.362;2023-05-23T15:51:40;23.10;13.00
6672;DHT22;3372;48.690;12.362;2023-05-23T15:54:06;23.00;12.50
6672;DHT22;3372;48.690;12.362;2023-05-23T15:56:31;23.20;12.90
6672;DHT22;3372;48.690;12.362;2023-05-23T15:58:57;23.10;13.00